sensor_id;sensor_type;location;lat;lon;timestamp;temperature;humidity
10437;DHT22;5265;50.006;9.202;2023-02-04T00:02:10;7.40;99.90
10437;DHT22;5265;50.006;9.202;2023-02-04T00:04:37;7.40;99.90
10437;DHT22;5265;50.006;9.202;2023-02-04T00:07:04;7.40;99.90
10437;DHT22;5265;50.006;9.202;2023-02-04T00:09:31;7.30;99.90
10437;DHT22;5265;50.006;9.202;2023-02-04T00:11:58;7.40;99.90
10437;DHT22;5265;50.006;9.202;2023-02-04T00:14:26;7.40;99.90
10437;DHT22;5265;50.006;9.202;2023-02-04T00:16:53;7.40;99.90
10437;DHT22;5265;50.006;9.202;2023-02-04T00:19:21;7.40;99.90
10437;DHT22;5265;50.006;9.202;2023-02-04T00:21:49;7.40;99.90
10437;DHT22;5265;50.006;9.202;2023-02-04T00:24:16;7.40;99.90
10437;DHT22;5265;50.006;9.202;2023-02-04T00:26:43;7.40;99.90
10437;DHT22;5265;50.006;9.202;2023-02-04T00:29:10;7.40;99.90
10437;DHT22;5265;50.006;9.202;2023-02-04T00:31:37;7.30;99.90
10437;DHT22;5265;50.006;9.202;2023-02-04T00:34:04;7.30;99.90
10437;DHT22;5265;50.006;9.202;2023-02-04T00:36:33;7.40;99.90
10437;DHT22;5265;50.006;9.202;2023-02-04T00:39:00;7.30;99.90
10437;DHT22;5265;50.006;9.202;2023-02-04T00:41:27;7.30;99.90
10437;DHT22;5265;50.006;9.202;2023-02-04T00:43:54;7.30;99.90
10437;DHT22;5265;50.006;9.202;2023-02-04T00:46:23;7.30;99.90
10437;DHT22;5265;50.006;9.202;2023-02-04T00:48:49;7.30;99.90
10437;DHT22;5265;50.006;9.202;2023-02-04T00:51:17;7.40;99.90
10437;DHT22;5265;50.006;9.202;2023-02-04T00:53:45;7.30;99.90
10437;DHT22;5265;50.006;9.202;2023-02-04T00:56:12;7.30;99.90
10437;DHT22;5265;50.006;9.202;2023-02-04T00:58:39;7.30;99.90
10437;DHT22;5265;50.006;9.202;2023-02-04T01:01:07;7.40;99.90
10437;DHT22;5265;50.006;9.202;2023-02-04T01:03:34;7.30;99.90
10437;DHT22;5265;50.006;9.202;2023-02-04T01:06:00;7.20;99.90
10437;DHT22;5265;50.006;9.202;2023-02-04T01:08:28;7.30;99.90
10437;DHT22;5265;50.006;9.202;2023-02-04T01:10:56;7.30;99.90
10437;DHT22;5265;50.006;9.202;2023-02-04T01:13:24;7.30;99.90
10437;DHT22;5265;50.006;9.202;2023-02-04T01:15:51;7.20;99.90
10437;DHT22;5265;50.006;9.202;2023-02-04T01:18:18;7.20;99.90
10437;DHT22;5265;50.006;9.202;2023-02-04T01:20:45;7.20;99.90
10437;DHT22;5265;50.006;9.202;2023-02-04T01:23:11;7.10;99.90
10437;DHT22;5265;50.006;9.202;2023-02-04T01:25:40;7.10;99.90
10437;DHT22;5265;50.006;9.202;2023-02-04T01:28:08;7.10;99.90
10437;DHT22;5265;50.006;9.202;2023-02-04T01:30:36;7.10;99.90
10437;DHT22;5265;50.006;9.202;2023-02-04T01:33:03;7.20;99.90
10437;DHT22;5265;50.006;9.202;2023-02-04T01:35:30;7.10;99.90
10437;DHT22;5265;50.006;9.202;2023-02-04T01:37:57;7.20;99.90
10437;DHT22;5265;50.006;9.202;2023-02-04T01:40:24;7.20;99.90
10437;DHT22;5265;50.006;9.202;2023-02-04T01:42:51;7.20;99.90
10437;DHT22;5265;50.006;9.202;2023-02-04T01:45:20;7.10;99.90
10437;DHT22;5265;50.006;9.202;2023-02-04T01:47:47;7.10;99.90
10437;DHT22;5265;50.006;9.202;2023-02-04T01:50:15;7.10;99.90
10437;DHT22;5265;50.006;9.202;2023-02-04T01:52:43;7.10;99.90
10437;DHT22;5265;50.006;9.202;2023-02-04T01:55:11;7.10;99.90
10437;DHT22;5265;50.006;9.202;2023-02-04T01:57:38;7.10;99.90
10437;DHT22;5265;50.006;9.202;2023-02-04T02:00:08;7.20;99.90
10437;DHT22;5265;50.006;9.202;2023-02-04T02:02:40;7.10;99.90
10437;DHT22;5265;50.006;9.202;2023-02-04T02:05:07;7.00;99.90
10437;DHT22;5265;50.006;9.202;2023-02-04T02:07:34;7.00;99.90
10437;DHT22;5265;50.006;9.202;2023-02-04T02:10:02;7.00;99.90
10437;DHT22;5265;50.006;9.202;2023-02-04T02:12:29;6.90;99.90
10437;DHT22;5265;50.006;9.202;2023-02-04T02:14:56;7.00;99.90
10437;DHT22;5265;50.006;9.202;2023-02-04T02:17:24;6.90;99.90
10437;DHT22;5265;50.006;9.202;2023-02-04T02:19:53;6.80;99.90
10437;DHT22;5265;50.006;9.202;2023-02-04T02:22:22;6.80;99.90
10437;DHT22;5265;50.006;9.202;2023-02-04T02:24:52;6.70;99.90
10437;DHT22;5265;50.006;9.202;2023-02-04T02:27:19;6.60;99.90
10437;DHT22;5265;50.006;9.202;2023-02-04T02:29:47;6.60;99.90
10437;DHT22;5265;50.006;9.202;2023-02-04T02:32:14;6.50;99.90
10437;DHT22;5265;50.006;9.202;2023-02-04T02:34:41;6.80;99.90
10437;DHT22;5265;50.006;9.202;2023-02-04T02:37:09;6.40;99.90
10437;DHT22;5265;50.006;9.202;2023-02-04T02:39:36;6.40;99.90
10437;DHT22;5265;50.006;9.202;2023-02-04T02:42:05;6.30;99.90
10437;DHT22;5265;50.006;9.202;2023-02-04T02:44:33;6.80;99.90
10437;DHT22;5265;50.006;9.202;2023-02-04T02:47:00;6.50;99.90
10437;DHT22;5265;50.006;9.202;2023-02-04T02:49:27;6.40;99.90
10437;DHT22;5265;50.006;9.202;2023-02-04T02:51:55;6.40;99.90
10437;DHT22;5265;50.006;9.202;2023-02-04T02:54:25;6.40;99.90
10437;DHT22;5265;50.006;9.202;2023-02-04T02:56:55;6.50;99.90
10437;DHT22;5265;50.006;9.202;2023-02-04T02:59:24;6.40;99.90
10437;DHT22;5265;50.006;9.202;2023-02-04T03:01:52;6.40;99.90
10437;DHT22;5265;50.006;9.202;2023-02-04T03:04:24;6.50;99.90
10437;DHT22;5265;50.006;9.202;2023-02-04T03:06:52;6.50;99.90
10437;DHT22;5265;50.006;9.202;2023-02-04T03:09:20;6.40;99.90
10437;DHT22;5265;50.006;9.202;2023-02-04T03:11:50;6.50;99.90
10437;DHT22;5265;50.006;9.202;2023-02-04T03:14:17;6.30;99.90
10437;DHT22;5265;50.006;9.202;2023-02-04T03:16:46;6.30;99.90
10437;DHT22;5265;50.006;9.202;2023-02-04T03:19:13;6.30;99.90
10437;DHT22;5265;50.006;9.202;2023-02-04T03:21:41;6.60;99.90
10437;DHT22;5265;50.006;9.202;2023-02-04T03:24:08;6.40;99.90
10437;DHT22;5265;50.006;9.202;2023-02-04T03:26:36;6.40;99.90
10437;DHT22;5265;50.006;9.202;2023-02-04T03:29:05;6.40;99.90
10437;DHT22;5265;50.006;9.202;2023-02-04T03:31:32;6.40;99.90
10437;DHT22;5265;50.006;9.202;2023-02-04T03:34:01;6.40;99.90
10437;DHT22;5265;50.006;9.202;2023-02-04T03:36:28;6.30;99.90
10437;DHT22;5265;50.006;9.202;2023-02-04T03:38:56;6.30;99.90
10437;DHT22;5265;50.006;9.202;2023-02-04T03:41:23;6.30;99.90
10437;DHT22;5265;50.006;9.202;2023-02-04T03:43:50;6.50;99.90
10437;DHT22;5265;50.006;9.202;2023-02-04T03:46:17;6.20;99.90
10437;DHT22;5265;50.006;9.202;2023-02-04T03:48:44;6.20;99.90
10437;DHT22;5265;50.006;9.202;2023-02-04T03:51:13;6.20;99.90
10437;DHT22;5265;50.006;9.202;2023-02-04T03:53:40;6.20;99.90
10437;DHT22;5265;50.006;9.202;2023-02-04T03:56:07;6.20;99.90
10437;DHT22;5265;50.006;9.202;2023-02-04T03:58:35;6.20;99.90
10437;DHT22;5265;50.006;9.202;2023-02-04T04:01:02;6.20;99.90
10437;DHT22;5265;50.006;9.202;2023-02-04T04:03:29;6.10;99.90
10437;DHT22;5265;50.006;9.202;2023-02-04T04:05:56;6.10;99.90
10437;DHT22;5265;50.006;9.202;2023-02-04T04:08:24;6.10;99.90
10437;DHT22;5265;50.006;9.202;2023-02-04T04:10:52;6.00;99.90
10437;DHT22;5265;50.006;9.202;2023-02-04T04:13:18;6.10;99.90
10437;DHT22;5265;50.006;9.202;2023-02-04T04:15:46;6.40;99.90
10437;DHT22;5265;50.006;9.202;2023-02-04T04:18:13;6.00;99.90
10437;DHT22;5265;50.006;9.202;2023-02-04T04:20:40;6.00;99.90
10437;DHT22;5265;50.006;9.202;2023-02-04T04:23:07;6.00;99.90
10437;DHT22;5265;50.006;9.202;2023-02-04T04:25:36;5.90;99.90
10437;DHT22;5265;50.006;9.202;2023-02-04T04:28:03;5.90;99.90
10437;DHT22;5265;50.006;9.202;2023-02-04T04:30:30;5.90;99.90
10437;DHT22;5265;50.006;9.202;2023-02-04T04:32:57;6.00;99.90
10437;DHT22;5265;50.006;9.202;2023-02-04T04:35:25;6.00;99.90
10437;DHT22;5265;50.006;9.202;2023-02-04T04:37:52;6.20;99.90
10437;DHT22;5265;50.006;9.202;2023-02-04T04:40:19;5.90;99.90
10437;DHT22;5265;50.006;9.202;2023-02-04T04:42:47;5.80;99.90
10437;DHT22;5265;50.006;9.202;2023-02-04T04:45:14;5.70;99.90
10437;DHT22;5265;50.006;9.202;2023-02-04T04:47:41;5.60;99.90
10437;DHT22;5265;50.006;9.202;2023-02-04T04:50:09;5.80;99.90
10437;DHT22;5265;50.006;9.202;2023-02-04T04:52:36;5.60;99.90
10437;DHT22;5265;50.006;9.202;2023-02-04T04:55:03;5.60;99.90
10437;DHT22;5265;50.006;9.202;2023-02-04T04:57:31;5.50;99.90
10437;DHT22;5265;50.006;9.202;2023-02-04T04:59:59;5.40;99.90
10437;DHT22;5265;50.006;9.202;2023-02-04T05:02:26;5.40;99.90
10437;DHT22;5265;50.006;9.202;2023-02-04T05:04:54;5.40;99.90
10437;DHT22;5265;50.006;9.202;2023-02-04T05:07:21;5.30;99.90
10437;DHT22;5265;50.006;9.202;2023-02-04T05:09:48;5.50;99.90
10437;DHT22;5265;50.006;9.202;2023-02-04T05:12:15;5.30;99.90
10437;DHT22;5265;50.006;9.202;2023-02-04T05:14:42;5.30;99.90
10437;DHT22;5265;50.006;9.202;2023-02-04T05:17:10;5.20;99.90
10437;DHT22;5265;50.006;9.202;2023-02-04T05:19:37;5.20;99.90
10437;DHT22;5265;50.006;9.202;2023-02-04T05:22:04;5.20;99.90
10437;DHT22;5265;50.006;9.202;2023-02-04T05:24:31;5.10;99.90
10437;DHT22;5265;50.006;9.202;2023-02-04T05:26:58;5.10;99.90
10437;DHT22;5265;50.006;9.202;2023-02-04T05:29:25;5.00;99.90
10437;DHT22;5265;50.006;9.202;2023-02-04T05:31:52;4.90;99.90
10437;DHT22;5265;50.006;9.202;2023-02-04T05:34:20;5.20;99.90
10437;DHT22;5265;50.006;9.202;2023-02-04T05:36:47;4.70;99.90
10437;DHT22;5265;50.006;9.202;2023-02-04T05:39:14;4.70;99.90
10437;DHT22;5265;50.006;9.202;2023-02-04T05:41:41;4.60;99.90
10437;DHT22;5265;50.006;9.202;2023-02-04T05:44:08;4.70;99.90
10437;DHT22;5265;50.006;9.202;2023-02-04T05:46:35;4.50;99.90
10437;DHT22;5265;50.006;9.202;2023-02-04T05:49:03;4.50;99.90
10437;DHT22;5265;50.006;9.202;2023-02-04T05:51:32;4.50;99.90
10437;DHT22;5265;50.006;9.202;2023-02-04T05:53:59;4.50;99.90
10437;DHT22;5265;50.006;9.202;2023-02-04T05:56:26;4.40;99.90
10437;DHT22;5265;50.006;9.202;2023-02-04T05:58:53;4.40;99.90
10437;DHT22;5265;50.006;9.202;2023-02-04T06:01:20;4.40;99.90
10437;DHT22;5265;50.006;9.202;2023-02-04T06:03:47;4.50;99.90
10437;DHT22;5265;50.006;9.202;2023-02-04T06:06:14;4.30;99.90
10437;DHT22;5265;50.006;9.202;2023-02-04T06:08:43;4.40;99.90
10437;DHT22;5265;50.006;9.202;2023-02-04T06:11:10;4.40;99.90
10437;DHT22;5265;50.006;9.202;2023-02-04T06:13:37;4.30;99.90
10437;DHT22;5265;50.006;9.202;2023-02-04T06:16:04;4.30;99.90
10437;DHT22;5265;50.006;9.202;2023-02-04T06:18:32;4.20;99.90
10437;DHT22;5265;50.006;9.202;2023-02-04T06:20:59;5.10;99.90
10437;DHT22;5265;50.006;9.202;2023-02-04T06:23:29;4.20;99.90
10437;DHT22;5265;50.006;9.202;2023-02-04T06:25:57;4.20;99.90
10437;DHT22;5265;50.006;9.202;2023-02-04T06:28:24;5.30;99.90
10437;DHT22;5265;50.006;9.202;2023-02-04T06:30:51;4.10;99.90
10437;DHT22;5265;50.006;9.202;2023-02-04T06:33:18;4.20;99.90
10437;DHT22;5265;50.006;9.202;2023-02-04T06:35:47;4.20;99.90
10437;DHT22;5265;50.006;9.202;2023-02-04T06:38:14;4.10;99.90
10437;DHT22;5265;50.006;9.202;2023-02-04T06:40:41;4.10;99.90
10437;DHT22;5265;50.006;9.202;2023-02-04T06:43:09;4.10;99.90
10437;DHT22;5265;50.006;9.202;2023-02-04T06:45:36;4.10;99.90
10437;DHT22;5265;50.006;9.202;2023-02-04T06:48:03;4.10;99.90
10437;DHT22;5265;50.006;9.202;2023-02-04T06:50:31;4.10;99.90
10437;DHT22;5265;50.006;9.202;2023-02-04T06:52:58;4.10;99.90
10437;DHT22;5265;50.006;9.202;2023-02-04T06:55:25;4.00;99.90
10437;DHT22;5265;50.006;9.202;2023-02-04T06:57:52;3.90;99.90
10437;DHT22;5265;50.006;9.202;2023-02-04T07:00:20;4.00;99.90
10437;DHT22;5265;50.006;9.202;2023-02-04T07:02:48;4.00;99.90
10437;DHT22;5265;50.006;9.202;2023-02-04T07:05:15;3.90;99.90
10437;DHT22;5265;50.006;9.202;2023-02-04T07:07:42;3.90;99.90
10437;DHT22;5265;50.006;9.202;2023-02-04T07:10:09;3.90;99.90
10437;DHT22;5265;50.006;9.202;2023-02-04T07:12:36;3.90;99.90
10437;DHT22;5265;50.006;9.202;2023-02-04T07:15:03;3.90;99.90
10437;DHT22;5265;50.006;9.202;2023-02-04T07:17:32;3.90;99.90
10437;DHT22;5265;50.006;9.202;2023-02-04T07:19:59;3.90;99.90
10437;DHT22;5265;50.006;9.202;2023-02-04T07:22:26;3.90;99.90
10437;DHT22;5265;50.006;9.202;2023-02-04T07:24:53;3.90;99.90
10437;DHT22;5265;50.006;9.202;2023-02-04T07:27:20;3.90;99.90
10437;DHT22;5265;50.006;9.202;2023-02-04T07:29:47;4.00;99.90
10437;DHT22;5265;50.006;9.202;2023-02-04T07:32:14;3.90;99.90
10437;DHT22;5265;50.006;9.202;2023-02-04T07:34:43;3.90;99.90
10437;DHT22;5265;50.006;9.202;2023-02-04T07:37:10;4.10;99.90
10437;DHT22;5265;50.006;9.202;2023-02-04T07:39:37;4.20;99.90
10437;DHT22;5265;50.006;9.202;2023-02-04T07:42:04;4.10;99.90
10437;DHT22;5265;50.006;9.202;2023-02-04T07:44:41;4.10;99.90
10437;DHT22;5265;50.006;9.202;2023-02-04T07:47:08;4.00;99.90
10437;DHT22;5265;50.006;9.202;2023-02-04T07:49:36;4.00;99.90
10437;DHT22;5265;50.006;9.202;2023-02-04T07:52:05;4.10;99.90
10437;DHT22;5265;50.006;9.202;2023-02-04T07:54:32;4.00;99.90
10437;DHT22;5265;50.006;9.202;2023-02-04T07:56:59;4.00;99.90
10437;DHT22;5265;50.006;9.202;2023-02-04T07:59:27;4.00;99.90
10437;DHT22;5265;50.006;9.202;2023-02-04T08:01:54;3.90;99.90
10437;DHT22;5265;50.006;9.202;2023-02-04T08:04:21;4.10;99.90
10437;DHT22;5265;50.006;9.202;2023-02-04T08:06:48;4.00;99.90
10437;DHT22;5265;50.006;9.202;2023-02-04T08:09:16;4.10;99.90
10437;DHT22;5265;50.006;9.202;2023-02-04T08:11:44;4.30;99.90
10437;DHT22;5265;50.006;9.202;2023-02-04T08:14:11;4.30;99.90
10437;DHT22;5265;50.006;9.202;2023-02-04T08:16:38;4.40;99.90
10437;DHT22;5265;50.006;9.202;2023-02-04T08:19:05;4.50;99.90
10437;DHT22;5265;50.006;9.202;2023-02-04T08:21:32;4.40;99.90
10437;DHT22;5265;50.006;9.202;2023-02-04T08:24:00;4.30;99.90
10437;DHT22;5265;50.006;9.202;2023-02-04T08:26:28;4.50;99.90
10437;DHT22;5265;50.006;9.202;2023-02-04T08:28:55;4.40;99.90
10437;DHT22;5265;50.006;9.202;2023-02-04T08:31:22;4.50;99.90
10437;DHT22;5265;50.006;9.202;2023-02-04T08:33:50;4.50;99.90
10437;DHT22;5265;50.006;9.202;2023-02-04T08:36:17;4.60;99.90
10437;DHT22;5265;50.006;9.202;2023-02-04T08:38:44;4.50;99.90
10437;DHT22;5265;50.006;9.202;2023-02-04T08:41:11;4.60;99.90
10437;DHT22;5265;50.006;9.202;2023-02-04T08:43:39;4.70;99.90
10437;DHT22;5265;50.006;9.202;2023-02-04T08:46:07;4.70;99.90
10437;DHT22;5265;50.006;9.202;2023-02-04T08:48:34;4.70;99.90
10437;DHT22;5265;50.006;9.202;2023-02-04T08:51:01;4.80;99.90
10437;DHT22;5265;50.006;9.202;2023-02-04T08:53:28;4.90;99.90
10437;DHT22;5265;50.006;9.202;2023-02-04T08:55:55;4.90;99.90
10437;DHT22;5265;50.006;9.202;2023-02-04T08:58:22;5.00;99.90
10437;DHT22;5265;50.006;9.202;2023-02-04T09:00:51;5.00;99.90
10437;DHT22;5265;50.006;9.202;2023-02-04T09:03:18;5.20;99.90
10437;DHT22;5265;50.006;9.202;2023-02-04T09:05:45;5.10;99.90
10437;DHT22;5265;50.006;9.202;2023-02-04T09:08:13;5.20;99.90
10437;DHT22;5265;50.006;9.202;2023-02-04T09:10:40;5.30;99.90
10437;DHT22;5265;50.006;9.202;2023-02-04T09:13:07;5.40;99.90
10437;DHT22;5265;50.006;9.202;2023-02-04T09:15:36;5.50;99.90
10437;DHT22;5265;50.006;9.202;2023-02-04T09:18:05;5.60;99.90
10437;DHT22;5265;50.006;9.202;2023-02-04T09:20:39;5.60;99.90
10437;DHT22;5265;50.006;9.202;2023-02-04T09:23:06;5.60;99.90
10437;DHT22;5265;50.006;9.202;2023-02-04T09:25:33;5.70;99.90
10437;DHT22;5265;50.006;9.202;2023-02-04T09:28:00;5.80;99.90
10437;DHT22;5265;50.006;9.202;2023-02-04T09:30:28;5.90;99.90
10437;DHT22;5265;50.006;9.202;2023-02-04T09:32:55;5.90;99.90
10437;DHT22;5265;50.006;9.202;2023-02-04T09:35:23;5.90;99.90
10437;DHT22;5265;50.006;9.202;2023-02-04T09:37:50;6.00;99.90
10437;DHT22;5265;50.006;9.202;2023-02-04T09:40:17;6.20;99.90
10437;DHT22;5265;50.006;9.202;2023-02-04T09:42:45;6.20;99.90
10437;DHT22;5265;50.006;9.202;2023-02-04T09:45:14;6.30;99.90
10437;DHT22;5265;50.006;9.202;2023-02-04T09:47:43;6.40;99.90
10437;DHT22;5265;50.006;9.202;2023-02-04T09:50:12;6.50;99.90
10437;DHT22;5265;50.006;9.202;2023-02-04T09:52:41;6.60;99.90
10437;DHT22;5265;50.006;9.202;2023-02-04T09:55:11;6.60;99.90
10437;DHT22;5265;50.006;9.202;2023-02-04T09:57:39;6.60;99.90
10437;DHT22;5265;50.006;9.202;2023-02-04T10:00:09;6.50;99.90
10437;DHT22;5265;50.006;9.202;2023-02-04T10:02:40;6.50;99.90
10437;DHT22;5265;50.006;9.202;2023-02-04T10:05:08;6.60;99.90
10437;DHT22;5265;50.006;9.202;2023-02-04T10:07:38;6.60;99.90
10437;DHT22;5265;50.006;9.202;2023-02-04T10:10:08;6.70;99.90
10437;DHT22;5265;50.006;9.202;2023-02-04T10:12:39;6.80;99.90
10437;DHT22;5265;50.006;9.202;2023-02-04T10:15:07;7.10;99.90
10437;DHT22;5265;50.006;9.202;2023-02-04T10:17:35;7.00;99.90
10437;DHT22;5265;50.006;9.202;2023-02-04T10:20:02;7.00;99.90
10437;DHT22;5265;50.006;9.202;2023-02-04T10:22:29;7.10;99.90
10437;DHT22;5265;50.006;9.202;2023-02-04T10:24:56;7.10;99.90
10437;DHT22;5265;50.006;9.202;2023-02-04T10:27:24;7.20;99.90
10437;DHT22;5265;50.006;9.202;2023-02-04T10:29:55;7.20;99.90
10437;DHT22;5265;50.006;9.202;2023-02-04T10:32:25;7.20;99.90
10437;DHT22;5265;50.006;9.202;2023-02-04T10:34:57;7.20;99.90
10437;DHT22;5265;50.006;9.202;2023-02-04T10:37:24;7.10;99.90
10437;DHT22;5265;50.006;9.202;2023-02-04T10:39:52;7.10;99.90
10437;DHT22;5265;50.006;9.202;2023-02-04T10:42:20;7.10;99.90
10437;DHT22;5265;50.006;9.202;2023-02-04T10:44:49;7.10;99.90
10437;DHT22;5265;50.006;9.202;2023-02-04T10:47:17;7.30;99.90
10437;DHT22;5265;50.006;9.202;2023-02-04T10:49:51;7.40;99.90
10437;DHT22;5265;50.006;9.202;2023-02-04T10:52:19;7.60;99.90
10437;DHT22;5265;50.006;9.202;2023-02-04T10:54:47;7.60;99.90
10437;DHT22;5265;50.006;9.202;2023-02-04T10:57:16;7.60;99.90
10437;DHT22;5265;50.006;9.202;2023-02-04T10:59:44;7.70;99.90
10437;DHT22;5265;50.006;9.202;2023-02-04T11:02:24;7.80;99.90
10437;DHT22;5265;50.006;9.202;2023-02-04T11:04:55;7.90;99.90
10437;DHT22;5265;50.006;9.202;2023-02-04T11:07:22;7.90;99.90
10437;DHT22;5265;50.006;9.202;2023-02-04T11:09:49;7.80;99.90
10437;DHT22;5265;50.006;9.202;2023-02-04T11:12:20;7.90;99.90
10437;DHT22;5265;50.006;9.202;2023-02-04T11:14:53;7.90;99.90
10437;DHT22;5265;50.006;9.202;2023-02-04T11:17:27;8.00;99.90
10437;DHT22;5265;50.006;9.202;2023-02-04T11:19:55;8.10;99.90
10437;DHT22;5265;50.006;9.202;2023-02-04T11:22:22;8.20;99.90
10437;DHT22;5265;50.006;9.202;2023-02-04T11:24:49;8.30;99.90
10437;DHT22;5265;50.006;9.202;2023-02-04T11:27:21;8.30;99.90
10437;DHT22;5265;50.006;9.202;2023-02-04T11:29:49;8.30;99.90
10437;DHT22;5265;50.006;9.202;2023-02-04T11:32:29;8.30;99.90
10437;DHT22;5265;50.006;9.202;2023-02-04T11:35:05;8.20;99.90
10437;DHT22;5265;50.006;9.202;2023-02-04T11:37:34;8.10;99.90
10437;DHT22;5265;50.006;9.202;2023-02-04T11:40:10;8.10;99.90
10437;DHT22;5265;50.006;9.202;2023-02-04T11:42:40;8.00;99.90
10437;DHT22;5265;50.006;9.202;2023-02-04T11:45:11;8.10;99.90
10437;DHT22;5265;50.006;9.202;2023-02-04T11:47:40;8.20;99.90
10437;DHT22;5265;50.006;9.202;2023-02-04T11:50:11;8.20;99.90
10437;DHT22;5265;50.006;9.202;2023-02-04T11:52:38;8.00;99.90
10437;DHT22;5265;50.006;9.202;2023-02-04T11:55:08;7.80;99.90
10437;DHT22;5265;50.006;9.202;2023-02-04T11:57:39;7.80;99.90
10437;DHT22;5265;50.006;9.202;2023-02-04T12:00:11;7.90;99.90
10437;DHT22;5265;50.006;9.202;2023-02-04T12:02:44;7.80;99.90
10437;DHT22;5265;50.006;9.202;2023-02-04T12:05:12;7.80;99.90
10437;DHT22;5265;50.006;9.202;2023-02-04T12:07:40;7.90;99.90
10437;DHT22;5265;50.006;9.202;2023-02-04T12:10:11;7.90;99.90
10437;DHT22;5265;50.006;9.202;2023-02-04T12:12:42;8.00;99.90
10437;DHT22;5265;50.006;9.202;2023-02-04T12:15:13;8.10;99.90
10437;DHT22;5265;50.006;9.202;2023-02-04T12:17:44;8.20;99.90
10437;DHT22;5265;50.006;9.202;2023-02-04T12:20:11;8.30;99.90
10437;DHT22;5265;50.006;9.202;2023-02-04T12:22:39;8.40;99.90
10437;DHT22;5265;50.006;9.202;2023-02-04T12:25:06;8.40;99.90
10437;DHT22;5265;50.006;9.202;2023-02-04T12:27:33;8.40;99.90
10437;DHT22;5265;50.006;9.202;2023-02-04T12:30:01;8.30;99.90
10437;DHT22;5265;50.006;9.202;2023-02-04T12:32:28;8.40;99.90
10437;DHT22;5265;50.006;9.202;2023-02-04T12:34:56;8.40;99.90
10437;DHT22;5265;50.006;9.202;2023-02-04T12:37:23;8.40;99.90
10437;DHT22;5265;50.006;9.202;2023-02-04T12:39:51;8.40;99.90
10437;DHT22;5265;50.006;9.202;2023-02-04T12:42:18;8.40;99.90
10437;DHT22;5265;50.006;9.202;2023-02-04T12:44:45;8.50;99.90
10437;DHT22;5265;50.006;9.202;2023-02-04T12:47:12;8.50;99.90
10437;DHT22;5265;50.006;9.202;2023-02-04T12:49:39;8.50;99.90
10437;DHT22;5265;50.006;9.202;2023-02-04T12:52:07;8.60;99.90
10437;DHT22;5265;50.006;9.202;2023-02-04T12:54:35;8.50;99.90
10437;DHT22;5265;50.006;9.202;2023-02-04T12:57:02;8.60;99.90
10437;DHT22;5265;50.006;9.202;2023-02-04T12:59:31;8.40;99.90
10437;DHT22;5265;50.006;9.202;2023-02-04T13:01:58;8.10;99.90
10437;DHT22;5265;50.006;9.202;2023-02-04T13:04:25;8.10;99.90
10437;DHT22;5265;50.006;9.202;2023-02-04T13:06:52;7.90;99.90
10437;DHT22;5265;50.006;9.202;2023-02-04T13:09:21;8.00;99.90
10437;DHT22;5265;50.006;9.202;2023-02-04T13:11:48;7.90;99.90
10437;DHT22;5265;50.006;9.202;2023-02-04T13:14:15;7.60;99.90
10437;DHT22;5265;50.006;9.202;2023-02-04T13:16:42;7.60;99.90
10437;DHT22;5265;50.006;9.202;2023-02-04T13:19:10;7.70;99.90
10437;DHT22;5265;50.006;9.202;2023-02-04T13:21:36;7.60;99.90
10437;DHT22;5265;50.006;9.202;2023-02-04T13:24:04;7.50;99.90
10437;DHT22;5265;50.006;9.202;2023-02-04T13:26:32;7.60;99.90
10437;DHT22;5265;50.006;9.202;2023-02-04T13:28:59;7.70;99.90
10437;DHT22;5265;50.006;9.202;2023-02-04T13:31:26;7.80;99.90
10437;DHT22;5265;50.006;9.202;2023-02-04T13:33:53;8.00;99.90
10437;DHT22;5265;50.006;9.202;2023-02-04T13:36:21;8.00;99.90
10437;DHT22;5265;50.006;9.202;2023-02-04T13:38:47;8.10;99.90
10437;DHT22;5265;50.006;9.202;2023-02-04T13:41:15;8.10;99.90
10437;DHT22;5265;50.006;9.202;2023-02-04T13:43:43;8.00;99.90
10437;DHT22;5265;50.006;9.202;2023-02-04T13:46:10;8.10;99.90
10437;DHT22;5265;50.006;9.202;2023-02-04T13:48:37;8.10;99.90
10437;DHT22;5265;50.006;9.202;2023-02-04T13:51:04;8.10;99.90
10437;DHT22;5265;50.006;9.202;2023-02-04T13:53:32;8.10;99.90
10437;DHT22;5265;50.006;9.202;2023-02-04T13:55:59;8.10;99.90
10437;DHT22;5265;50.006;9.202;2023-02-04T13:58:26;8.00;99.90
10437;DHT22;5265;50.006;9.202;2023-02-04T14:00:55;8.00;99.90
10437;DHT22;5265;50.006;9.202;2023-02-04T14:03:23;8.20;99.90
10437;DHT22;5265;50.006;9.202;2023-02-04T14:05:50;8.30;99.90
10437;DHT22;5265;50.006;9.202;2023-02-04T14:08:17;8.40;99.90
10437;DHT22;5265;50.006;9.202;2023-02-04T14:10:44;8.50;99.90
10437;DHT22;5265;50.006;9.202;2023-02-04T14:13:11;8.60;99.90
10437;DHT22;5265;50.006;9.202;2023-02-04T14:15:38;8.60;99.90
10437;DHT22;5265;50.006;9.202;2023-02-04T14:18:07;8.70;99.90
10437;DHT22;5265;50.006;9.202;2023-02-04T14:20:35;8.70;99.90
10437;DHT22;5265;50.006;9.202;2023-02-04T14:23:02;8.80;99.90
10437;DHT22;5265;50.006;9.202;2023-02-04T14:25:30;8.70;99.90
10437;DHT22;5265;50.006;9.202;2023-02-04T14:27:57;8.70;99.90
10437;DHT22;5265;50.006;9.202;2023-02-04T14:30:25;8.70;99.90
10437;DHT22;5265;50.006;9.202;2023-02-04T14:32:52;8.70;99.90
10437;DHT22;5265;50.006;9.202;2023-02-04T14:35:21;8.70;99.90
10437;DHT22;5265;50.006;9.202;2023-02-04T14:37:48;8.70;99.90
10437;DHT22;5265;50.006;9.202;2023-02-04T14:40:16;8.90;99.90
10437;DHT22;5265;50.006;9.202;2023-02-04T14:42:44;9.10;99.90
10437;DHT22;5265;50.006;9.202;2023-02-04T14:45:12;9.00;99.90
10437;DHT22;5265;50.006;9.202;2023-02-04T14:47:39;9.00;99.90
10437;DHT22;5265;50.006;9.202;2023-02-04T14:50:07;9.10;99.90
10437;DHT22;5265;50.006;9.202;2023-02-04T14:52:36;9.30;99.90
10437;DHT22;5265;50.006;9.202;2023-02-04T14:55:03;9.50;99.90
10437;DHT22;5265;50.006;9.202;2023-02-04T14:57:30;9.80;99.90
10437;DHT22;5265;50.006;9.202;2023-02-04T14:59:57;10.00;99.90
10437;DHT22;5265;50.006;9.202;2023-02-04T15:02:24;10.20;99.90
10437;DHT22;5265;50.006;9.202;2023-02-04T15:04:51;10.20;99.90
10437;DHT22;5265;50.006;9.202;2023-02-04T15:07:19;10.20;99.90
10437;DHT22;5265;50.006;9.202;2023-02-04T15:09:47;10.20;99.90
10437;DHT22;5265;50.006;9.202;2023-02-04T15:12:14;10.40;99.90
10437;DHT22;5265;50.006;9.202;2023-02-04T15:14:41;10.60;99.90
10437;DHT22;5265;50.006;9.202;2023-02-04T15:17:08;10.60;99.90
10437;DHT22;5265;50.006;9.202;2023-02-04T15:19:36;10.60;99.90
10437;DHT22;5265;50.006;9.202;2023-02-04T15:22:03;10.50;99.90
10437;DHT22;5265;50.006;9.202;2023-02-04T15:24:30;10.20;99.90
10437;DHT22;5265;50.006;9.202;2023-02-04T15:26:58;10.00;99.90
10437;DHT22;5265;50.006;9.202;2023-02-04T15:29:25;9.70;99.90
10437;DHT22;5265;50.006;9.202;2023-02-04T15:31:52;9.60;99.90
10437;DHT22;5265;50.006;9.202;2023-02-04T15:34:22;9.50;99.90
10437;DHT22;5265;50.006;9.202;2023-02-04T15:36:49;9.40;99.90
10437;DHT22;5265;50.006;9.202;2023-02-04T15:39:16;9.40;99.90
10437;DHT22;5265;50.006;9.202;2023-02-04T15:41:43;9.40;99.90
10437;DHT22;5265;50.006;9.202;2023-02-04T15:44:12;9.50;99.90
10437;DHT22;5265;50.006;9.202;2023-02-04T15:46:39;9.40;99.90
10437;DHT22;5265;50.006;9.202;2023-02-04T15:49:06;9.30;99.90
10437;DHT22;5265;50.006;9.202;2023-02-04T15:51:34;9.20;99.90
10437;DHT22;5265;50.006;9.202;2023-02-04T15:54:01;9.20;99.90
10437;DHT22;5265;50.006;9.202;2023-02-04T15:56:28;9.20;99.90
10437;DHT22;5265;50.006;9.202;2023-02-04T15:58:55;9.10;99.90
10437;DHT22;5265;50.006;9.202;2023-02-04T16:01:23;9.00;99.90
10437;DHT22;5265;50.006;9.202;2023-02-04T16:03:51;8.80;99.90
10437;DHT22;5265;50.006;9.202;2023-02-04T16:06:21;8.60;99.90